createdAt,value
2023-04-09T00:03:58.376Z,5.60
2023-04-09T00:08:59.844Z,5.40
2023-04-09T00:14:01.238Z,5.20
2023-04-09T00:19:02.647Z,5.10
2023-04-09T00:24:04.052Z,5.40
2023-04-09T00:29:05.463Z,5.23
2023-04-09T00:34:06.915Z,4.77
2023-04-09T00:39:08.350Z,4.80
2023-04-09T00:44:09.851Z,6.03
2023-04-09T00:49:11.259Z,5.47
2023-04-09T00:54:12.662Z,5.50
2023-04-09T00:59:14.147Z,6.00
2023-04-09T01:04:15.724Z,6.17
2023-04-09T01:09:17.183Z,5.73
2023-04-09T01:14:18.648Z,6.00
2023-04-09T01:19:20.114Z,5.70
2023-04-09T01:24:21.557Z,6.37
2023-04-09T01:29:23.201Z,5.97
2023-04-09T01:34:24.625Z,5.77
2023-04-09T01:39:26.046Z,5.70
2023-04-09T01:44:27.471Z,5.57
2023-04-09T01:49:28.880Z,5.97
2023-04-09T01:54:30.342Z,5.90
2023-04-09T01:59:31.759Z,6.53
2023-04-09T02:04:33.181Z,6.37
2023-04-09T02:09:34.593Z,6.03
2023-04-09T02:14:35.986Z,6.80
2023-04-09T02:19:37.418Z,5.50
2023-04-09T02:24:38.936Z,5.20
2023-04-09T02:29:40.476Z,6.30
2023-04-09T02:34:41.899Z,6.40
2023-04-09T02:39:43.555Z,6.23
2023-04-09T02:44:44.978Z,6.37
2023-04-09T02:49:46.406Z,5.60
2023-04-09T02:54:47.830Z,5.93
2023-04-09T02:59:49.241Z,5.80
2023-04-09T03:04:50.641Z,6.20
2023-04-09T03:09:52.087Z,6.17
2023-04-09T03:14:53.567Z,6.20
2023-04-09T03:19:54.992Z,6.23
2023-04-09T03:24:56.406Z,6.40
2023-04-09T03:29:57.832Z,6.80
2023-04-09T03:34:59.244Z,6.60
2023-04-09T03:40:00.634Z,6.63
2023-04-09T03:45:02.030Z,6.73
2023-04-09T03:50:03.424Z,6.60
2023-04-09T03:55:04.831Z,7.47
2023-04-09T04:00:06.233Z,7.40
2023-04-09T04:05:07.652Z,7.70
2023-04-09T04:10:09.090Z,7.80
2023-04-09T04:15:10.503Z,7.17
2023-04-09T04:20:11.927Z,7.90
2023-04-09T04:25:13.347Z,6.80
2023-04-09T04:30:14.784Z,7.00
2023-04-09T04:35:16.260Z,8.17
2023-04-09T04:40:17.749Z,7.97
2023-04-09T04:45:19.190Z,7.30
2023-04-09T04:50:20.616Z,7.50
2023-04-09T04:55:22.029Z,7.30
2023-04-09T05:00:23.437Z,8.30
2023-04-09T05:05:24.850Z,8.20
2023-04-09T05:10:26.254Z,7.20
2023-04-09T05:15:27.736Z,7.77
2023-04-09T05:20:29.154Z,7.40
2023-04-09T05:25:30.574Z,7.90
2023-04-09T05:30:32.032Z,7.43
2023-04-09T05:35:33.501Z,7.90
2023-04-09T05:40:34.948Z,7.60
2023-04-09T05:45:36.389Z,7.13
2023-04-09T05:50:47.460Z,8.23
2023-04-09T05:55:55.690Z,7.23
2023-04-09T06:00:57.131Z,7.13
2023-04-09T06:05:58.564Z,7.83
2023-04-09T06:10:59.983Z,7.77
2023-04-09T06:16:01.555Z,7.43
2023-04-09T06:21:03.020Z,8.20
2023-04-09T06:26:04.438Z,7.83
2023-04-09T06:31:05.874Z,7.70
2023-04-09T06:36:07.389Z,8.07
2023-04-09T06:41:08.821Z,7.03
2023-04-09T06:46:10.279Z,8.23
2023-04-09T06:51:11.737Z,7.80
2023-04-09T06:56:13.152Z,7.63
2023-04-09T07:01:14.665Z,8.20
2023-04-09T07:06:16.103Z,7.90
2023-04-09T07:11:17.535Z,6.80
2023-04-09T07:16:18.985Z,7.00
2023-04-09T07:21:20.426Z,7.50
2023-04-09T07:26:21.844Z,8.10
2023-04-09T07:31:23.288Z,7.23
2023-04-09T07:36:24.845Z,7.60
2023-04-09T07:41:26.278Z,7.40
2023-04-09T07:46:28.118Z,7.20
2023-04-09T07:51:29.680Z,7.53
2023-04-09T07:56:31.079Z,7.77
2023-04-09T08:01:32.522Z,7.43
2023-04-09T08:06:33.952Z,7.07
2023-04-09T08:11:35.387Z,7.97
2023-04-09T08:16:36.830Z,8.20
2023-04-09T08:21:38.262Z,7.60
2023-04-09T08:26:39.693Z,7.03
2023-04-09T08:31:41.169Z,7.47
2023-04-09T08:36:42.621Z,7.50
2023-04-09T08:41:44.089Z,7.40
2023-04-09T08:46:45.506Z,7.10
2023-04-09T08:51:47.005Z,7.20
2023-04-09T08:56:48.512Z,7.47
2023-04-09T09:01:49.969Z,7.37
2023-04-09T09:06:51.451Z,6.20
2023-04-09T09:11:52.866Z,6.23
2023-04-09T09:16:54.300Z,6.83
2023-04-09T09:21:55.710Z,6.60
2023-04-09T09:26:57.142Z,7.47
2023-04-09T09:31:58.568Z,6.80
2023-04-09T09:36:59.972Z,6.27
2023-04-09T09:42:01.377Z,7.13
2023-04-09T09:47:02.819Z,6.57
2023-04-09T09:52:04.271Z,6.63
2023-04-09T09:57:05.691Z,6.93
2023-04-09T10:02:07.193Z,6.90
2023-04-09T10:07:08.832Z,5.90
2023-04-09T10:12:10.329Z,6.57
2023-04-09T10:17:11.890Z,6.83
2023-04-09T10:22:13.929Z,6.20
2023-04-09T10:27:16.523Z,5.53
2023-04-09T10:32:18.560Z,6.17
2023-04-09T10:37:19.974Z,6.00
2023-04-09T10:42:21.385Z,6.20
2023-04-09T10:47:22.833Z,6.47
2023-04-09T10:52:24.269Z,5.40
2023-04-09T10:57:25.673Z,6.23
2023-04-09T11:02:27.237Z,6.10
2023-04-09T11:07:28.802Z,6.20
2023-04-09T11:12:30.210Z,6.10
2023-04-09T11:17:31.618Z,6.03
2023-04-09T11:22:33.020Z,5.80
2023-04-09T11:27:34.441Z,5.63
2023-04-09T11:32:35.956Z,6.10
2023-04-09T11:37:37.426Z,5.83
2023-04-09T11:42:38.957Z,5.73
2023-04-09T11:47:40.388Z,5.30
2023-04-09T11:52:41.823Z,5.53
2023-04-09T11:57:43.226Z,5.53
2023-04-09T12:02:44.825Z,5.13
2023-04-09T12:07:55.285Z,4.97
2023-04-09T12:12:57.576Z,5.50
2023-04-09T12:17:59.132Z,5.60
2023-04-09T12:23:00.616Z,5.53
2023-04-09T12:28:02.092Z,5.47
2023-04-09T12:33:03.693Z,4.50
2023-04-09T12:38:05.161Z,4.60
2023-04-09T12:43:06.556Z,5.07
2023-04-09T12:48:07.997Z,5.30
2023-04-09T12:53:09.447Z,4.60
2023-04-09T12:58:10.874Z,5.67
2023-04-09T13:03:12.392Z,5.50
2023-04-09T13:08:13.923Z,5.03
2023-04-09T13:13:15.357Z,4.63
2023-04-09T13:18:16.783Z,5.10
2023-04-09T13:23:18.211Z,5.27
2023-04-09T13:28:19.652Z,4.87
2023-04-09T13:33:21.123Z,4.57
2023-04-09T13:38:22.554Z,4.57
2023-04-09T13:43:23.990Z,5.10
2023-04-09T13:48:25.432Z,5.37
2023-04-09T13:53:26.886Z,4.60
2023-04-09T13:58:28.300Z,4.53
2023-04-09T14:03:29.796Z,4.73
2023-04-09T14:08:31.267Z,4.57
2023-04-09T14:13:32.685Z,4.60
2023-04-09T14:18:34.112Z,4.50
2023-04-09T14:23:35.540Z,5.00
2023-04-09T14:28:36.952Z,4.93
2023-04-09T14:33:38.370Z,4.67
2023-04-09T14:38:39.781Z,4.40
2023-04-09T14:43:41.227Z,5.03
2023-04-09T14:48:43.779Z,4.40
2023-04-09T14:53:45.228Z,5.37
2023-04-09T14:58:46.648Z,4.37
2023-04-09T15:03:48.220Z,4.77
2023-04-09T15:08:49.736Z,4.43
2023-04-09T15:13:51.125Z,4.40
2023-04-09T15:18:52.907Z,4.27
2023-04-09T15:23:54.545Z,4.30
2023-04-09T15:28:55.948Z,4.63
2023-04-09T15:33:57.340Z,4.23
2023-04-09T15:38:58.745Z,4.33
2023-04-09T15:44:00.154Z,4.40
2023-04-09T15:49:01.567Z,4.13
2023-04-09T15:54:02.964Z,4.93
2023-04-09T15:59:05.446Z,4.57
2023-04-09T16:04:06.911Z,4.10
2023-04-09T16:09:08.325Z,4.27
2023-04-09T16:14:09.734Z,3.97
2023-04-09T16:19:11.171Z,4.00
2023-04-09T16:24:12.581Z,4.60
2023-04-09T16:29:14.015Z,3.77
2023-04-09T16:34:15.766Z,3.80
2023-04-09T16:39:18.259Z,3.53
2023-04-09T16:44:19.910Z,4.47
2023-04-09T16:49:21.332Z,3.70
2023-04-09T16:54:22.742Z,4.27
2023-04-09T16:59:24.164Z,4.30
2023-04-09T17:04:25.627Z,4.00
2023-04-09T17:09:27.103Z,4.43
2023-04-09T17:14:28.532Z,4.30
2023-04-09T17:19:29.939Z,3.90
2023-04-09T17:24:31.382Z,4.47
2023-04-09T17:29:32.798Z,4.00
2023-04-09T17:34:34.255Z,4.47
2023-04-09T17:39:35.696Z,3.83
2023-04-09T17:44:37.228Z,4.10
2023-04-09T17:49:38.731Z,3.70
2023-04-09T17:54:40.187Z,3.87
2023-04-09T17:59:41.591Z,3.70
2023-04-09T18:04:43.076Z,3.70
2023-04-09T18:09:44.584Z,3.50
2023-04-09T18:14:45.976Z,3.90
2023-04-09T18:19:47.379Z,4.13
2023-04-09T18:24:48.817Z,4.50
2023-04-09T18:29:50.216Z,3.90
2023-04-09T18:34:51.625Z,4.40
2023-04-09T18:39:53.035Z,3.80
2023-04-09T18:44:54.431Z,3.40
2023-04-09T18:49:55.836Z,4.00
2023-04-09T18:54:57.245Z,4.10
2023-04-09T18:59:58.670Z,3.10
2023-04-09T19:05:00.205Z,4.37
2023-04-09T19:10:01.695Z,4.10
2023-04-09T19:15:03.109Z,3.70
2023-04-09T19:20:04.498Z,3.90
2023-04-09T19:25:05.912Z,4.03
2023-04-09T19:30:07.345Z,3.90
2023-04-09T19:35:08.871Z,3.87
2023-04-09T19:40:10.359Z,3.90
2023-04-09T19:45:11.802Z,3.90
2023-04-09T19:50:13.422Z,4.17
2023-04-09T19:55:14.839Z,3.93
2023-04-09T20:00:16.298Z,3.90
2023-04-09T20:05:17.701Z,3.70
2023-04-09T20:10:19.142Z,3.93
2023-04-09T20:15:20.568Z,4.07
2023-04-09T20:20:22.048Z,4.00
2023-04-09T20:25:23.552Z,3.67
2023-04-09T20:30:24.996Z,3.37
2023-04-09T20:35:26.394Z,4.30
2023-04-09T20:40:27.798Z,4.10
2023-04-09T20:45:29.227Z,3.90
2023-04-09T20:50:30.634Z,3.83
2023-04-09T20:55:32.053Z,4.27
2023-04-09T21:00:33.457Z,4.17
2023-04-09T21:05:34.872Z,4.10
2023-04-09T21:10:36.276Z,3.67
2023-04-09T21:15:37.685Z,4.60
2023-04-09T21:20:39.093Z,3.50
2023-04-09T21:25:40.540Z,4.07
2023-04-09T21:30:41.979Z,4.03
2023-04-09T21:35:43.424Z,4.00
2023-04-09T21:40:44.856Z,4.00
2023-04-09T21:45:46.275Z,4.27
2023-04-09T21:50:47.780Z,4.20
2023-04-09T21:55:49.350Z,4.23
2023-04-09T22:00:50.768Z,3.83
2023-04-09T22:05:52.175Z,5.17
2023-04-09T22:10:53.581Z,4.20
2023-04-09T22:15:55.042Z,3.93
2023-04-09T22:20:56.477Z,4.00
2023-04-09T22:25:57.886Z,4.40
2023-04-09T22:30:59.379Z,3.90
2023-04-09T22:36:00.870Z,3.70
2023-04-09T22:41:02.293Z,4.50
2023-04-09T22:46:03.771Z,3.77
2023-04-09T22:51:05.189Z,3.40
2023-04-09T22:56:06.590Z,3.67
2023-04-09T23:01:07.994Z,4.23
2023-04-09T23:06:09.404Z,3.87
2023-04-09T23:11:10.843Z,3.73
2023-04-09T23:16:12.292Z,3.70
2023-04-09T23:21:13.724Z,3.93
2023-04-09T23:26:15.118Z,4.00
2023-04-09T23:31:16.535Z,4.10
2023-04-09T23:36:17.959Z,3.73
2023-04-09T23:41:19.386Z,3.50
2023-04-09T23:46:20.819Z,4.30
2023-04-09T23:51:22.222Z,3.53
2023-04-09T23:56:23.653Z,4.50
